Terminal Aerodrome Forecast
Issued by NWS Wichita, KS

Home | Current Version | Previous Version | Text Only | Print | Product List | Glossary Off
Versions: 1 2 3 4 5 6 7 8 9 10 11 12 13 14 15 16 17 18 19 20 21 22 23 24

000
FTUS43 KICT 150728 AAB
TAFICT
TAF AMD
KICT 150728Z 1507/1606 17013KT P6SM SCT010 OVC100
     FM151100 23013G22KT P6SM OVC007
     FM151400 31022G30KT P6SM OVC013
     FM151700 31022G30KT P6SM OVC025
     FM152100 31022G30KT P6SM OVC035=

USA.gov is the U.S. government's official web portal to all federal, state and local government web resources and services.